Time;durP1;ratioP1;P1;durP2;ratioP2;P2;SDS_P1;SDS_P2;PMS_P1;PMS_P2;Temp;Humidity;BMP_temperature;BMP_pressure;BME280_temperature;BME280_humidity;BME280_pressure;Samples;Min_cycle;Max_cycle;Signal;HPM_P1;HPM_P2
2022/05/20 00:00:45;;;;;;;2.90;1.95;;;;;;;16.34;31.37;100019.36;1827644;77;21477;-64
2022/05/20 00:03:12;;;;;;;4.42;1.90;;;;;;;16.37;31.20;100017.86;1832703;75;21867;-63
2022/05/20 00:05:40;;;;;;;2.25;1.72;;;;;;;16.37;31.44;100019.64;1833934;75;21581;-62
2022/05/20 00:08:29;;;;;;;2.90;1.83;;;;;;;16.27;31.70;100024.17;1835748;75;20990;-62
2022/05/20 00:10:56;;;;;;;3.00;2.05;;;;;;;16.31;31.77;100027.05;1696494;83;21587;-62
2022/05/20 00:13:25;;;;;;;3.95;1.77;;;;;;;16.25;31.63;100025.22;1703402;83;22477;-62
2022/05/20 00:15:53;;;;;;;3.15;1.98;;;;;;;16.25;31.79;100016.78;1695532;83;21876;-65
2022/05/20 00:18:20;;;;;;;2.30;1.30;;;;;;;16.22;31.70;100018.31;1699130;83;21559;-63
2022/05/20 00:20:48;;;;;;;6.67;1.62;;;;;;;16.27;31.78;100022.84;1696071;82;21058;-63
2022/05/20 00:23:15;;;;;;;5.25;1.57;;;;;;;16.21;31.79;100017.08;1703236;83;21553;-63
2022/05/20 00:25:45;;;;;;;5.72;1.82;;;;;;;16.21;31.82;100016.59;1695417;83;21476;-63
2022/05/20 00:28:22;;;;;;;4.60;1.60;;;;;;;16.26;31.90;100008.38;1668190;83;21739;-64
2022/05/20 00:30:52;;;;;;;2.55;1.95;;;;;;;16.34;31.79;100003.44;1650598;84;21608;-64
2022/05/20 00:33:19;;;;;;;6.45;1.90;;;;;;;16.32;31.62;100004.85;1684946;83;21548;-64
2022/05/20 00:35:46;;;;;;;2.37;1.98;;;;;;;16.46;31.49;100001.83;1696870;83;21424;-65
2022/05/20 00:38:14;;;;;;;3.60;1.47;;;;;;;16.45;31.43;99998.81;1692088;83;21464;-63
2022/05/20 00:40:41;;;;;;;1.95;1.70;;;;;;;16.54;31.60;100000.42;1703163;83;22598;-63
2022/05/20 00:43:28;;;;;;;4.67;2.00;;;;;;;16.55;31.59;100000.78;1701431;83;21517;-68
2022/05/20 00:45:58;;;;;;;2.70;1.77;;;;;;;16.55;31.45;99991.97;1662549;84;21007;-65
2022/05/20 00:48:25;;;;;;;1.55;1.42;;;;;;;16.71;31.45;99993.22;1699580;83;21571;-65
2022/05/20 00:51:00;;;;;;;4.87;1.98;;;;;;;16.79;31.32;99998.04;1697008;83;21564;-65
2022/05/20 00:53:32;;;;;;;5.20;1.87;;;;;;;16.86;31.37;99996.74;1655856;85;21849;-64
2022/05/20 00:56:01;;;;;;;7.40;1.92;;;;;;;16.79;31.20;99992.73;1679289;83;21605;-64
2022/05/20 00:58:29;;;;;;;3.60;2.12;;;;;;;16.88;31.41;100003.65;1705027;83;21210;-64
2022/05/20 01:00:55;;;;;;;3.58;1.77;;;;;;;16.72;31.70;99996.23;1682679;83;21482;-64
2022/05/20 01:03:27;;;;;;;3.98;1.90;;;;;;;16.91;31.54;99995.95;1681807;83;26904;-64
2022/05/20 01:05:54;;;;;;;6.78;2.10;;;;;;;16.92;31.26;99988.38;1699228;83;21885;-64
2022/05/20 01:08:24;;;;;;;4.15;1.92;;;;;;;17.01;31.26;99972.30;1693166;83;21760;-64
2022/05/20 01:10:52;;;;;;;5.55;2.12;;;;;;;17.02;31.36;99976.20;1712773;82;21007;-65
2022/05/20 01:13:21;;;;;;;2.27;1.98;;;;;;;17.04;31.42;99970.79;1715353;81;21500;-64
2022/05/20 01:15:49;;;;;;;4.45;2.30;;;;;;;17.08;31.42;99970.52;1716341;82;21535;-65
2022/05/20 01:18:16;;;;;;;4.20;2.10;;;;;;;17.11;31.49;99971.63;1711748;82;21847;-64
2022/05/20 01:20:52;;;;;;;3.25;2.15;;;;;;;17.11;31.79;99972.11;1710407;81;21507;-66
2022/05/20 01:23:21;;;;;;;2.62;2.02;;;;;;;17.11;31.85;99978.27;1713799;81;21465;-64
2022/05/20 01:25:52;;;;;;;5.05;2.45;;;;;;;17.12;31.90;99977.33;1713094;82;21563;-65
2022/05/20 01:28:23;;;;;;;4.92;2.47;;;;;;;17.11;32.40;99976.94;1711841;82;21526;-65
2022/05/20 01:30:59;;;;;;;2.42;2.00;;;;;;;17.10;32.42;99987.20;1716051;82;22199;-65
2022/05/20 01:33:33;;;;;;;3.40;2.40;;;;;;;17.05;32.46;99984.47;1714312;82;21472;-66
2022/05/20 01:36:01;;;;;;;3.83;1.80;;;;;;;17.01;32.76;99977.62;1707333;82;21063;-65
2022/05/20 01:38:29;;;;;;;5.33;2.40;;;;;;;16.93;32.78;99975.00;1715496;80;21441;-64
2022/05/20 01:41:06;;;;;;;3.80;2.50;;;;;;;16.88;32.83;99982.89;1709806;80;21430;-65
2022/05/20 01:44:08;;;;;;;3.40;2.05;;;;;;;16.84;32.88;99980.02;1716557;80;22099;-65
2022/05/20 01:46:43;;;;;;;2.58;2.10;;;;;;;16.73;32.98;99978.88;1709802;82;21615;-66
2022/05/20 01:49:43;;;;;;;7.83;2.40;;;;;;;16.68;33.35;99979.64;1712648;81;20975;-65
2022/05/20 01:52:28;;;;;;;5.95;2.72;;;;;;;16.77;33.33;99979.55;1713443;82;21512;-65
2022/05/20 01:55:07;;;;;;;4.25;2.25;;;;;;;16.69;33.32;99979.19;1713764;80;21452;-65
2022/05/20 01:57:45;;;;;;;3.85;2.12;;;;;;;16.80;33.29;99966.53;1722972;81;21787;-66
2022/05/20 02:00:20;;;;;;;3.92;2.25;;;;;;;16.78;33.27;99964.45;1715410;80;21500;-65
2022/05/20 02:02:58;;;;;;;6.08;2.60;;;;;;;16.80;33.42;99970.52;1712199;80;21452;-65
2022/05/20 02:05:54;;;;;;;2.67;2.10;;;;;;;16.84;33.31;99973.38;1713422;80;21449;-64
2022/05/20 02:08:35;;;;;;;5.15;2.52;;;;;;;16.75;33.50;99972.16;1718076;80;21508;-64
2022/05/20 02:11:20;;;;;;;5.20;2.05;;;;;;;16.71;33.71;99978.13;1704738;81;22197;-64
2022/05/20 02:13:52;;;;;;;6.40;2.42;;;;;;;16.88;33.74;99973.11;1684736;82;21556;-65
2022/05/20 02:16:24;;;;;;;3.80;2.27;;;;;;;16.76;33.89;99988.44;1722537;81;21417;-66
2022/05/20 02:18:56;;;;;;;4.60;2.50;;;;;;;16.67;34.02;99989.02;1710810;81;21524;-66
2022/05/20 02:21:25;;;;;;;2.62;2.02;;;;;;;16.67;34.06;99984.59;1715774;80;21515;-65
2022/05/20 02:23:55;;;;;;;6.47;2.17;;;;;;;16.66;34.32;99978.04;1725535;82;21931;-64
2022/05/20 02:26:25;;;;;;;3.58;2.20;;;;;;;16.68;34.16;99975.66;1713867;82;21515;-64
2022/05/20 02:28:58;;;;;;;6.87;2.45;;;;;;;16.64;34.18;99991.88;1717515;81;21516;-65
2022/05/20 02:31:35;;;;;;;3.83;2.42;;;;;;;16.68;34.53;99988.08;1711728;81;21530;-64
2022/05/20 02:34:02;;;;;;;2.87;2.20;;;;;;;16.68;34.53;99980.96;1685047;82;21547;-64
2022/05/20 02:36:33;;;;;;;6.40;2.33;;;;;;;16.61;34.78;99984.95;1720240;81;21856;-64
2022/05/20 02:39:02;;;;;;;5.22;2.60;;;;;;;16.56;34.60;99981.75;1722843;80;21576;-64
2022/05/20 02:41:30;;;;;;;3.60;2.22;;;;;;;16.62;34.86;99984.02;1713841;81;21480;-64
2022/05/20 02:43:56;;;;;;;4.60;2.35;;;;;;;16.64;34.81;99981.27;1714172;81;21505;-65
2022/05/20 02:46:23;;;;;;;3.70;1.98;;;;;;;16.61;34.82;99980.13;1718605;82;21508;-65
2022/05/20 02:48:49;;;;;;;6.35;2.00;;;;;;;16.56;34.77;99972.45;1710461;81;21963;-65
2022/05/20 02:51:17;;;;;;;8.23;2.10;;;;;;;16.51;34.57;99970.56;1715441;81;21034;-65
2022/05/20 02:53:47;;;;;;;9.60;2.50;;;;;;;16.53;34.53;99973.48;1719726;80;21481;-65
2022/05/20 02:56:13;;;;;;;7.37;2.58;;;;;;;16.47;34.59;99977.86;1695027;82;21591;-65
2022/05/20 03:04:10;;;;;;;6.28;2.45;;;;;;;16.50;35.37;99983.44;1710119;82;21570;-64
2022/05/20 03:06:50;;;;;;;4.78;2.22;;;;;;;16.55;35.25;99986.66;1717216;82;20932;-64
2022/05/20 03:09:19;;;;;;;5.62;2.55;;;;;;;16.66;35.56;99992.64;1691370;82;21489;-64
2022/05/20 03:11:47;;;;;;;5.50;2.45;;;;;;;16.58;36.19;99990.95;1715767;81;21001;-64
2022/05/20 03:14:16;;;;;;;6.70;2.70;;;;;;;16.48;35.98;99986.66;1715576;81;21779;-64
2022/05/20 03:16:43;;;;;;;8.35;2.45;;;;;;;16.53;36.08;99992.55;1713382;81;21074;-65
2022/05/20 03:19:10;;;;;;;3.83;2.08;;;;;;;16.38;35.90;99993.02;1708551;82;21594;-64
2022/05/20 03:21:37;;;;;;;5.95;2.55;;;;;;;16.55;36.02;99995.95;1697362;82;20965;-64
2022/05/20 03:24:06;;;;;;;2.55;2.35;;;;;;;16.50;35.77;99994.05;1714578;80;21497;-64
2022/05/20 03:26:33;;;;;;;3.98;2.40;;;;;;;16.62;35.66;99999.09;1697057;82;21856;-64
2022/05/20 03:29:02;;;;;;;3.92;2.37;;;;;;;16.58;36.03;100003.73;1698023;81;21686;-65
2022/05/20 03:31:31;;;;;;;4.10;2.60;;;;;;;16.53;36.25;100004.00;1700835;82;21489;-64
2022/05/20 03:34:05;;;;;;;4.28;2.40;;;;;;;16.61;36.36;99999.55;1704894;82;21505;-64
2022/05/20 03:36:27;;;;;;;4.53;2.42;;;;;;;16.66;36.32;99998.80;1691696;82;21437;-64
2022/05/20 03:38:53;;;;;;;3.90;2.45;;;;;;;16.65;36.17;99998.43;1713914;82;22101;-66
2022/05/20 03:41:20;;;;;;;6.30;2.60;;;;;;;16.58;36.59;99999.76;1716658;80;21662;-65
2022/05/20 03:43:47;;;;;;;6.17;3.02;;;;;;;16.70;36.46;100000.30;1716149;81;21579;-65
2022/05/20 03:46:14;;;;;;;4.12;2.77;;;;;;;16.76;36.25;99996.41;1701823;82;21572;-65
2022/05/20 03:48:40;;;;;;;4.08;2.72;;;;;;;16.80;36.17;100001.05;1706575;82;21552;-65
2022/05/20 03:51:12;;;;;;;4.72;2.70;;;;;;;16.88;36.35;100013.43;1714014;81;21532;-64
2022/05/20 03:53:39;;;;;;;3.77;2.60;;;;;;;16.87;36.52;100009.05;1709456;82;21564;-64
2022/05/20 03:56:07;;;;;;;4.80;2.73;;;;;;;16.95;36.57;99997.94;1715230;82;21054;-65
2022/05/20 03:58:35;;;;;;;4.85;2.15;;;;;;;17.04;36.72;100001.34;1711000;82;21474;-65
2022/05/20 04:03:47;;;;;;;6.45;2.58;;;;;;;17.32;36.17;99993.77;1701496;82;21889;-65
2022/05/20 04:06:14;;;;;;;4.77;2.40;;;;;;;17.36;36.28;99993.94;1712594;82;21453;-65
2022/05/20 04:08:42;;;;;;;3.97;2.57;;;;;;;17.42;36.27;99997.55;1713701;81;21795;-64
2022/05/20 04:11:11;;;;;;;5.90;3.17;;;;;;;17.48;36.91;99999.79;1711125;81;22271;-68
2022/05/20 04:13:41;;;;;;;4.83;2.47;;;;;;;17.60;36.46;99993.28;1693033;82;21437;-64
2022/05/20 04:16:11;;;;;;;4.97;2.27;;;;;;;17.69;36.30;100000.16;1719197;80;21559;-65
2022/05/20 04:18:40;;;;;;;6.65;2.20;;;;;;;17.80;36.68;100004.78;1720437;80;21506;-64
2022/05/20 04:21:09;;;;;;;4.50;2.80;;;;;;;17.89;36.93;100017.49;1709027;82;21489;-64
2022/05/20 04:23:36;;;;;;;7.67;3.30;;;;;;;17.99;37.25;100031.02;1718091;81;21504;-64
2022/05/20 04:26:03;;;;;;;5.37;3.23;;;;;;;18.06;37.81;100033.64;1712423;82;21596;-64
2022/05/20 04:28:30;;;;;;;;;;;;;;;18.00;37.88;100039.84;1712267;82;21492;-68
2022/05/20 04:31:00;;;;;;;7.58;3.10;;;;;;;18.00;38.59;100043.83;1717176;82;20432;-66
2022/05/20 04:33:27;;;;;;;5.58;3.20;;;;;;;18.00;38.67;100044.67;1715484;82;21436;-65
2022/05/20 04:35:54;;;;;;;5.28;2.98;;;;;;;17.96;38.76;100045.84;1694314;83;21461;-65
2022/05/20 04:38:21;;;;;;;4.17;2.90;;;;;;;17.94;39.37;100047.76;1702286;82;21039;-64
2022/05/20 04:49:06;;;;;;;4.92;3.00;;;;;;;18.04;39.12;100047.50;1708739;82;21022;-61
2022/05/20 04:51:34;;;;;;;3.90;2.87;;;;;;;18.14;39.09;100043.77;1713308;81;21549;-61
2022/05/20 04:56:47;;;;;;;8.40;3.47;;;;;;;18.13;38.97;100051.36;1718521;80;21445;-61
2022/05/20 04:59:16;;;;;;;8.78;4.40;;;;;;;18.16;39.16;100051.16;1722483;80;21413;-60
2022/05/20 05:01:44;;;;;;;5.37;4.17;;;;;;;18.31;39.41;100055.05;1707094;81;21505;-60
2022/05/20 05:04:11;;;;;;;;;;;;;;;18.19;40.92;100049.59;1701448;83;21584;-60
2022/05/20 05:06:38;;;;;;;7.50;3.50;;;;;;;18.14;41.66;100052.20;1710098;81;22028;-63
2022/05/20 05:09:05;;;;;;;4.55;2.80;;;;;;;18.04;41.52;100046.17;1709277;82;21874;-63
2022/05/20 05:11:31;;;;;;;6.85;2.90;;;;;;;18.09;41.71;100053.86;1713941;81;21618;-71
2022/05/20 05:13:58;;;;;;;3.20;2.62;;;;;;;18.19;41.20;100054.92;1713076;80;21465;-66
2022/05/20 05:16:25;;;;;;;7.28;2.98;;;;;;;18.19;41.29;100057.59;1718317;81;21535;-67
2022/05/20 05:18:52;;;;;;;11.60;2.90;;;;;;;18.35;40.90;100052.57;1705434;82;21928;-61
2022/05/20 05:21:19;;;;;;;12.70;4.27;;;;;;;18.39;41.03;100052.73;1700568;81;21784;-65
2022/05/20 05:23:45;;;;;;;5.65;3.10;;;;;;;18.41;40.98;100055.65;1703543;81;21039;-69
2022/05/20 05:26:13;;;;;;;5.10;3.12;;;;;;;18.48;40.26;100053.42;1688398;83;21098;-61
2022/05/20 05:28:40;;;;;;;5.00;2.83;;;;;;;18.52;40.21;100062.90;1696726;81;21567;-68
2022/05/20 05:31:08;;;;;;;6.53;3.58;;;;;;;18.59;39.77;100061.52;1697998;82;21509;-69
2022/05/20 05:33:36;;;;;;;;;;;;;;;18.62;39.67;100062.62;1702015;80;21019;-69
2022/05/20 05:36:03;;;;;;;5.53;3.27;;;;;;;18.52;39.41;100060.73;1697632;82;20249;-71
2022/05/20 05:38:30;;;;;;;6.62;3.02;;;;;;;18.49;39.85;100063.10;1698354;81;21042;-63
2022/05/20 05:40:56;;;;;;;5.12;2.90;;;;;;;18.50;40.13;100056.83;1709220;82;21638;-61
2022/05/20 05:43:23;;;;;;;6.00;2.87;;;;;;;18.61;39.77;100054.28;1702646;80;21909;-61
2022/05/20 05:45:50;;;;;;;6.83;2.52;;;;;;;18.79;39.62;100058.77;1715708;82;21527;-61
2022/05/20 05:48:17;;;;;;;4.05;2.80;;;;;;;18.89;39.02;100063.48;1718254;80;21027;-60
2022/05/20 05:50:44;;;;;;;8.40;3.20;;;;;;;19.01;38.62;100063.97;1721580;81;21484;-60
2022/05/20 05:53:18;;;;;;;3.87;3.20;;;;;;;18.98;38.33;100066.34;1695697;83;21485;-60
2022/05/20 05:55:47;;;;;;;6.17;3.70;;;;;;;19.02;37.71;100058.98;1720004;82;21867;-60
2022/05/20 05:58:14;;;;;;;4.30;3.00;;;;;;;19.04;37.84;100060.60;1713408;81;21628;-60
2022/05/20 06:02:33;;;;;;;6.12;3.77;;;;;;;18.28;40.77;100053.45;1774694;78;23077;-63
2022/05/20 06:05:00;;;;;;;7.85;3.52;;;;;;;19.38;37.43;100059.95;1738476;80;21069;-61
2022/05/20 06:07:27;;;;;;;6.67;2.92;;;;;;;19.32;37.90;100058.59;1690901;83;22079;-61
2022/05/20 06:09:55;;;;;;;10.13;3.62;;;;;;;19.23;38.50;100060.59;1710036;81;21537;-62
2022/05/20 06:12:22;;;;;;;6.40;3.60;;;;;;;19.29;38.45;100066.83;1700645;83;21485;-62
2022/05/20 06:14:50;;;;;;;6.90;4.10;;;;;;;19.38;38.54;100062.16;1705782;83;21446;-60
2022/05/20 06:17:17;;;;;;;11.12;4.08;;;;;;;19.44;38.60;100068.86;1703967;81;21525;-62
2022/05/20 06:19:43;;;;;;;7.35;4.42;;;;;;;19.54;38.35;100065.03;1696965;81;21813;-63
2022/05/20 06:22:10;;;;;;;10.18;4.83;;;;;;;19.67;37.98;100064.98;1670151;83;21474;-64
2022/05/20 06:24:37;;;;;;;6.55;4.97;;;;;;;19.74;37.30;100063.58;1699066;81;21515;-63
2022/05/20 06:27:04;;;;;;;6.92;4.78;;;;;;;19.75;37.39;100067.95;1704632;83;21566;-63
2022/05/20 06:29:32;;;;;;;13.43;5.40;;;;;;;19.95;37.09;100070.48;1698818;83;21615;-63
2022/05/20 06:32:00;;;;;;;12.95;5.30;;;;;;;20.06;36.93;100070.98;1705528;81;21005;-63
2022/05/20 06:39:48;;;;;;;11.63;5.33;;;;;;;20.19;37.16;100071.75;1688519;83;21481;-64
2022/05/20 06:39:51;;;;;;;11.33;5.10;;;;;;;20.33;37.20;100068.89;1688351;82;21482;-59
2022/05/20 06:42:19;;;;;;;10.65;5.30;;;;;;;20.42;37.18;100070.85;1693387;82;21530;-65
2022/05/20 06:44:46;;;;;;;10.48;5.83;;;;;;;20.56;37.28;100068.44;1701597;82;21836;-62
2022/05/20 06:47:13;;;;;;;10.38;5.97;;;;;;;20.72;37.38;100060.59;1701955;81;21139;-61
2022/05/20 06:49:40;;;;;;;7.78;5.53;;;;;;;20.83;37.23;100058.41;1691521;82;21419;-61
2022/05/20 06:52:08;;;;;;;10.78;6.35;;;;;;;20.87;37.12;100055.85;1700513;82;21514;-60
2022/05/20 06:54:35;;;;;;;10.85;6.53;;;;;;;20.95;36.99;100058.79;1701403;82;21608;-61
2022/05/20 06:57:03;;;;;;;14.70;6.80;;;;;;;21.06;36.86;100053.90;1696756;82;21850;-60
2022/05/20 06:59:31;;;;;;;11.25;6.72;;;;;;;21.14;36.73;100054.99;1699626;82;21427;-60
2022/05/20 07:02:00;;;;;;;12.23;6.42;;;;;;;21.09;37.15;100055.00;1697014;82;21526;-62
2022/05/20 07:04:31;;;;;;;16.12;6.70;;;;;;;21.17;37.07;100061.91;1682395;82;21580;-60
2022/05/20 07:06:58;;;;;;;12.47;6.42;;;;;;;21.32;36.95;100060.69;1687080;82;21470;-60
2022/05/20 07:09:26;;;;;;;10.18;6.55;;;;;;;21.49;36.55;100056.67;1682899;82;21932;-60
2022/05/20 07:11:53;;;;;;;10.83;5.73;;;;;;;21.53;36.83;100045.20;1684518;82;21550;-60
2022/05/20 07:14:20;;;;;;;13.45;7.10;;;;;;;21.54;36.89;100045.08;1686629;82;20955;-59
2022/05/20 07:16:47;;;;;;;11.43;6.50;;;;;;;21.57;37.08;100042.66;1693622;82;21527;-60
2022/05/20 07:19:16;;;;;;;15.10;6.87;;;;;;;21.68;37.15;100041.75;1685833;82;21105;-59
2022/05/20 07:21:43;;;;;;;;;;;;;;;21.33;38.23;100035.62;1733937;80;21807;-60
2022/05/20 07:24:10;;;;;;;10.20;6.40;;;;;;;21.48;38.00;100039.41;1728786;80;20148;-60
2022/05/20 07:26:37;;;;;;;13.22;6.40;;;;;;;21.53;38.24;100034.50;1735879;80;21132;-60
2022/05/20 07:29:05;;;;;;;11.15;5.90;;;;;;;21.65;38.14;100034.84;1728639;80;21575;-61
2022/05/20 07:31:31;;;;;;;12.13;6.60;;;;;;;21.74;37.95;100035.42;1734389;80;21497;-60
2022/05/20 07:34:01;;;;;;;13.72;6.25;;;;;;;21.61;38.31;100041.43;1718734;82;21410;-59
2022/05/20 07:36:28;;;;;;;10.13;6.03;;;;;;;21.63;38.59;100043.98;1724128;80;21505;-59
2022/05/20 07:38:55;;;;;;;11.97;5.97;;;;;;;21.71;38.57;100046.37;1693400;82;21532;-60
2022/05/20 07:41:23;;;;;;;8.78;5.40;;;;;;;21.82;38.91;100045.98;1695923;82;21430;-62
2022/05/20 07:43:50;;;;;;;9.03;5.42;;;;;;;21.90;38.70;100051.53;1738236;80;21101;-71
2022/05/20 07:46:17;;;;;;;8.08;5.53;;;;;;;22.06;38.88;100046.59;1740071;80;21818;-72
2022/05/20 07:48:45;;;;;;;8.38;6.08;;;;;;;22.20;38.55;100041.89;1694161;83;21431;-74
2022/05/20 07:51:17;;;;;;;15.80;5.30;;;;;;;22.22;38.54;100037.25;1699767;82;25846;-71
2022/05/20 07:53:48;;;;;;;9.08;5.53;;;;;;;22.10;39.01;100034.63;1698886;82;21448;-71
2022/05/20 07:56:21;;;;;;;11.22;5.10;;;;;;;21.97;39.18;100022.77;1734506;80;21502;-59
2022/05/20 07:58:51;;;;;;;9.30;4.55;;;;;;;21.96;39.09;100031.80;1741930;80;21842;-60
2022/05/20 08:01:22;;;;;;;15.40;6.12;;;;;;;22.02;39.54;100032.23;1740863;80;20953;-58
2022/05/20 08:06:39;;;;;;;7.17;4.70;;;;;;;22.02;41.04;100037.59;1723534;81;21459;-67
2022/05/20 08:09:07;;;;;;;8.78;4.62;;;;;;;21.97;41.11;100046.02;1723523;81;21523;-68
2022/05/20 08:11:35;;;;;;;7.37;4.50;;;;;;;21.95;41.25;100047.48;1725478;80;21903;-67
2022/05/20 08:14:03;;;;;;;6.80;4.65;;;;;;;22.04;42.12;100036.50;1680213;82;21403;-60
2022/05/20 08:16:29;;;;;;;6.80;5.12;;;;;;;22.04;42.36;100031.61;1719478;80;21522;-60
2022/05/20 08:18:56;;;;;;;6.87;4.12;;;;;;;21.93;42.48;100036.56;1686171;82;21045;-59
2022/05/20 08:21:23;;;;;;;8.88;4.60;;;;;;;21.95;42.10;100034.10;1679788;82;21502;-60
2022/05/20 08:23:50;;;;;;;9.25;4.40;;;;;;;22.02;42.25;100033.58;1710357;80;21912;-59
2022/05/20 08:26:18;;;;;;;;;;;;;;;21.94;42.91;100043.13;1728657;80;21475;-59
2022/05/20 08:28:46;;;;;;;7.10;4.50;;;;;;;21.70;45.94;100037.13;1718792;81;20147;-59
2022/05/20 08:31:14;;;;;;;5.60;4.28;;;;;;;21.61;45.50;100032.56;1709255;81;21090;-59
2022/05/20 08:33:42;;;;;;;7.62;4.80;;;;;;;21.64;46.36;100025.09;1696480;82;21426;-59
2022/05/20 08:36:09;;;;;;;6.12;4.60;;;;;;;21.68;46.64;100014.53;1672666;83;21972;-60
2022/05/20 08:38:35;;;;;;;5.83;4.20;;;;;;;21.89;47.15;100003.00;1727940;80;21050;-59
2022/05/20 08:41:02;;;;;;;8.38;4.15;;;;;;;22.06;46.48;99988.19;1719533;80;21531;-59
2022/05/20 08:43:32;;;;;;;7.90;4.10;;;;;;;22.21;45.87;99990.88;1679959;84;21514;-60
2022/05/20 08:46:00;;;;;;;8.55;4.53;;;;;;;22.46;45.53;99989.62;1685388;82;21531;-59
2022/05/20 08:48:27;;;;;;;;;;;;;;;22.60;44.47;99994.27;1726641;80;21779;-59
2022/05/20 08:50:55;;;;;;;8.13;4.78;;;;;;;22.66;44.65;99986.55;1721736;81;20405;-60
2022/05/20 08:53:25;;;;;;;;;;;;;;;22.79;43.72;99984.95;1721616;82;21510;-59
2022/05/20 08:55:52;;;;;;;6.15;4.00;;;;;;;22.96;43.04;99986.13;1724384;80;20422;-60
2022/05/20 08:58:22;;;;;;;4.70;3.98;;;;;;;23.04;42.85;99979.64;1722199;81;21566;-60
2022/05/20 09:00:49;;;;;;;9.15;3.87;;;;;;;23.09;43.09;99981.89;1687434;82;21589;-60
2022/05/20 09:03:17;;;;;;;7.15;3.87;;;;;;;23.08;43.04;99978.37;1689644;82;21549;-59
2022/05/20 09:05:46;;;;;;;5.72;3.83;;;;;;;23.26;42.58;99969.17;1690448;82;21554;-60
2022/05/20 09:08:26;;;;;;;7.95;3.62;;;;;;;23.45;42.33;99973.70;1677551;82;21428;-60
2022/05/20 09:10:56;;;;;;;7.20;3.50;;;;;;;23.54;41.61;99966.62;1683951;82;21431;-61
2022/05/20 09:16:20;;;;;;;6.55;2.90;;;;;;;23.97;39.87;99960.48;1718604;81;21420;-60
2022/05/20 09:18:49;;;;;;;6.58;2.40;;;;;;;23.82;39.39;99959.57;1729324;80;21469;-59
2022/05/20 09:21:32;;;;;;;3.72;2.75;;;;;;;24.12;37.88;99960.37;1682586;82;21541;-60
2022/05/20 09:24:01;;;;;;;8.10;2.60;;;;;;;24.32;37.24;99956.27;1722921;80;21420;-59
2022/05/20 09:26:39;;;;;;;6.70;2.95;;;;;;;24.54;36.08;99943.84;1727844;80;21444;-59
2022/05/20 09:29:34;;;;;;;3.55;3.00;;;;;;;24.77;35.78;99948.81;1724366;80;21053;-60
2022/05/20 09:32:03;;;;;;;6.35;2.80;;;;;;;24.97;35.50;99938.80;1729500;80;21440;-60
2022/05/20 09:34:41;;;;;;;3.42;2.58;;;;;;;25.21;34.13;99938.22;1717755;80;21565;-61
2022/05/20 09:37:16;;;;;;;4.45;2.87;;;;;;;25.23;34.44;99929.02;1723772;80;21586;-59
2022/05/20 09:39:45;;;;;;;5.62;2.70;;;;;;;25.27;33.38;99930.91;1685154;82;21789;-60
2022/05/20 09:42:19;;;;;;;5.03;2.80;;;;;;;25.23;33.63;99924.98;1730177;80;21502;-61
2022/05/20 09:44:55;;;;;;;6.97;2.67;;;;;;;25.33;34.12;99912.79;1730470;80;21514;-65
2022/05/20 09:47:54;;;;;;;8.83;2.55;;;;;;;25.50;33.49;99900.31;1714942;80;21621;-60
2022/05/20 09:50:52;;;;;;;4.17;2.05;;;;;;;25.66;33.27;99904.16;1686671;84;21696;-60
2022/05/20 09:53:35;;;;;;;6.40;2.35;;;;;;;25.87;31.71;99899.25;1626463;85;22207;-60
2022/05/20 09:56:23;;;;;;;4.95;2.35;;;;;;;25.96;31.56;99890.25;1623764;86;21049;-62
2022/05/20 09:59:29;;;;;;;5.20;2.60;;;;;;;26.15;30.89;99881.09;1654356;84;21164;-62
2022/05/20 10:02:07;;;;;;;3.37;2.00;;;;;;;26.33;30.17;99882.34;1657172;84;21654;-63
2022/05/20 10:04:41;;;;;;;10.30;3.02;;;;;;;26.31;30.01;99877.62;1650259;84;21558;-61
2022/05/20 10:07:13;;;;;;;3.80;2.40;;;;;;;26.54;29.84;99875.20;1644694;84;22046;-61
2022/05/20 10:09:56;;;;;;;3.67;2.60;;;;;;;26.76;29.55;99872.41;1655045;83;21475;-62
2022/05/20 10:12:33;;;;;;;11.90;2.90;;;;;;;27.08;28.90;99878.05;1658776;83;21108;-60
2022/05/20 10:15:12;;;;;;;2.50;2.22;;;;;;;27.22;28.79;99863.91;1651124;84;21478;-61
2022/05/20 10:17:58;;;;;;;8.20;2.17;;;;;;;27.39;28.00;99849.93;1656206;84;21029;-61
2022/05/20 10:20:42;;;;;;;4.20;2.27;;;;;;;27.33;27.89;99848.75;1649577;84;21908;-61
2022/05/20 10:23:34;;;;;;;7.55;2.60;;;;;;;27.78;27.54;99841.08;1648191;84;21569;-61
2022/05/20 10:26:30;;;;;;;6.55;1.90;;;;;;;27.35;27.22;99842.67;1656066;84;21447;-60
2022/05/20 10:32:35;;;;;;;;;;;;;;;27.38;26.12;99822.06;1669094;84;21653;-61
2022/05/20 10:35:13;;;;;;;6.45;2.40;;;;;;;27.32;24.95;99817.87;1652365;85;21243;-61
2022/05/20 10:38:10;;;;;;;6.75;2.17;;;;;;;27.45;26.52;99807.39;1644524;85;21558;-61
2022/05/20 10:40:55;;;;;;;5.90;2.70;;;;;;;27.45;26.52;99807.39;1599764;88;21475;-59
2022/05/20 10:49:55;;;;;;;7.00;1.95;;;;;;;26.85;26.42;99796.92;1646742;84;21835;-60
2022/05/20 10:52:56;;;;;;;2.70;1.70;;;;;;;27.14;25.54;99786.48;1648534;84;21607;-62
2022/05/20 10:55:34;;;;;;;5.62;1.90;;;;;;;27.23;24.25;99780.55;1655003;84;21387;-62
2022/05/20 10:58:18;;;;;;;4.17;1.70;;;;;;;27.15;24.04;99784.11;1664912;84;21503;-62
2022/05/20 11:00:52;;;;;;;4.58;1.80;;;;;;;26.99;24.06;99779.57;1648330;84;21561;-61
2022/05/20 11:03:48;;;;;;;3.27;1.60;;;;;;;27.36;22.70;99772.80;1653714;84;22025;-60
2022/05/20 11:06:43;;;;;;;5.47;1.98;;;;;;;27.35;23.26;99767.57;1627876;86;21562;-61
2022/05/20 11:09:42;;;;;;;2.45;1.60;;;;;;;27.55;22.46;99759.44;1647973;84;21497;-62
2022/05/20 11:12:35;;;;;;;3.33;1.45;;;;;;;27.72;22.09;99764.28;1654055;84;21038;-62
2022/05/20 11:15:25;;;;;;;4.83;1.92;;;;;;;28.02;21.34;99744.79;1656595;84;21613;-62
2022/05/20 11:18:15;;;;;;;2.87;1.92;;;;;;;28.02;21.34;99744.79;1648725;85;22201;-63
2022/05/20 11:21:13;;;;;;;2.75;2.15;;;;;;;27.67;22.20;99743.73;1655770;84;21568;-63
2022/05/20 11:24:05;;;;;;;3.20;1.62;;;;;;;27.88;21.24;99733.67;1648686;84;21446;-61
2022/05/20 11:27:14;;;;;;;5.40;1.62;;;;;;;28.09;21.46;99723.64;1655934;83;21495;-60
2022/05/20 11:29:54;;;;;;;4.08;1.70;;;;;;;28.09;21.46;99723.64;1650808;84;21480;-62
2022/05/20 11:32:35;;;;;;;6.03;2.10;;;;;;;28.10;21.70;99720.41;1660778;84;21810;-61
2022/05/20 11:35:38;;;;;;;4.25;1.90;;;;;;;28.03;21.23;99709.98;1651640;85;21563;-60
2022/05/20 11:38:34;;;;;;;9.10;1.70;;;;;;;27.65;22.43;99700.33;1653565;85;21538;-59
2022/05/20 11:41:39;;;;;;;5.30;1.80;;;;;;;28.37;22.49;99693.89;1651199;85;21570;-59
2022/05/20 11:44:36;;;;;;;6.10;2.17;;;;;;;28.26;21.61;99695.17;1650635;85;21526;-59
2022/05/20 11:47:45;;;;;;;3.22;1.67;;;;;;;28.26;22.51;99683.00;1672691;85;22103;-61
2022/05/20 11:50:41;;;;;;;6.95;1.80;;;;;;;28.28;22.11;99674.20;1655117;85;21495;-60
2022/05/20 11:53:22;;;;;;;2.55;1.80;;;;;;;28.28;22.11;99674.20;1650011;85;21578;-61
2022/05/20 11:55:58;;;;;;;11.05;1.67;;;;;;;28.32;21.82;99671.47;1619599;85;21515;-60
2022/05/20 11:58:31;;;;;;;1.98;1.65;;;;;;;28.35;22.39;99665.19;1666477;85;21515;-59
2022/05/20 12:00:58;;;;;;;3.33;1.87;;;;;;;28.54;22.06;99661.19;1645430;86;21776;-60
2022/05/20 12:03:28;;;;;;;2.37;1.98;;;;;;;28.73;21.48;99646.30;1654518;85;21502;-59
2022/05/20 12:05:55;;;;;;;4.58;1.87;;;;;;;29.00;21.25;99648.06;1653839;85;20991;-59
2022/05/20 12:08:45;;;;;;;5.10;1.77;;;;;;;29.33;20.81;99648.24;1654034;85;21697;-60
2022/05/20 12:11:34;;;;;;;2.77;2.00;;;;;;;29.50;20.75;99647.04;1646103;85;21624;-61
2022/05/20 12:14:09;;;;;;;4.20;1.90;;;;;;;29.62;21.27;99643.33;1650449;85;22193;-60
2022/05/20 12:17:00;;;;;;;2.37;1.57;;;;;;;29.10;21.43;99639.67;1658028;85;21017;-59
2022/05/20 12:26:07;;;;;;;2.00;1.62;;;;;;;29.38;21.31;99624.99;1643660;85;21528;-59
2022/05/20 12:28:36;;;;;;;5.70;1.70;;;;;;;29.70;21.37;99618.83;1655866;85;21861;-59
2022/05/20 12:31:18;;;;;;;2.27;1.60;;;;;;;29.18;20.84;99609.85;1641385;85;21639;-59
2022/05/20 12:34:02;;;;;;;2.80;1.70;;;;;;;29.61;20.76;99614.05;1639415;85;21538;-59
2022/05/20 12:36:39;;;;;;;2.83;1.47;;;;;;;29.30;20.84;99606.15;1636076;85;21499;-58
2022/05/20 12:39:12;;;;;;;1.98;1.40;;;;;;;29.38;20.61;99605.20;1654003;84;21617;-59
2022/05/20 12:41:48;;;;;;;1.70;1.25;;;;;;;29.55;20.08;99593.12;1652365;84;21864;-58
2022/05/20 12:44:21;;;;;;;3.22;1.20;;;;;;;29.73;19.86;99590.04;1654846;84;21505;-59